createdAt,value
2018-10-12T00:02:06.741Z,76.30
2018-10-12T00:04:38.304Z,76.50
2018-10-12T00:07:08.484Z,77.10
2018-10-12T00:09:38.559Z,77.30
2018-10-12T00:12:13.540Z,78.30
2018-10-12T00:14:45.375Z,78.00
2018-10-12T00:17:15.521Z,79.40
2018-10-12T00:19:44.561Z,78.80
2018-10-12T00:22:14.289Z,80.10
2018-10-12T00:24:44.123Z,80.00
2018-10-12T00:27:13.945Z,79.70
2018-10-12T00:29:45.781Z,80.20
2018-10-12T00:32:17.337Z,80.90
2018-10-12T00:34:50.376Z,81.70
2018-10-12T00:37:20.316Z,81.80
2018-10-12T00:39:52.770Z,80.80
2018-10-12T00:42:23.420Z,80.50
2018-10-12T00:44:55.348Z,80.40
2018-10-12T00:47:26.420Z,80.90
2018-10-12T00:49:56.795Z,81.80
2018-10-12T00:52:28.447Z,81.40
2018-10-12T00:55:01.107Z,82.80
2018-10-12T00:57:32.249Z,83.00
2018-10-12T01:00:02.171Z,84.40
2018-10-12T01:02:32.565Z,84.30
2018-10-12T01:05:02.613Z,84.20
2018-10-12T01:07:33.127Z,83.90
2018-10-12T01:10:03.310Z,83.60
2018-10-12T01:12:34.689Z,81.90
2018-10-12T01:15:05.112Z,82.60
2018-10-12T01:17:35.131Z,82.90
2018-10-12T01:20:04.947Z,83.60
2018-10-12T01:22:33.925Z,84.40
2018-10-12T01:25:04.029Z,84.20
2018-10-12T01:27:33.606Z,84.50
2018-10-12T01:30:03.518Z,84.20
2018-10-12T01:32:38.141Z,85.40
2018-10-12T01:35:07.147Z,85.10
2018-10-12T01:37:36.501Z,84.00
2018-10-12T01:40:06.005Z,85.40
2018-10-12T01:42:34.712Z,85.20
2018-10-12T01:45:03.648Z,85.10
2018-10-12T01:47:32.464Z,85.20
2018-10-12T01:50:02.115Z,84.70
2018-10-12T01:52:30.939Z,84.80
2018-10-12T01:54:59.826Z,84.80
2018-10-12T01:57:28.660Z,85.70
2018-10-12T01:59:57.499Z,85.00
2018-10-12T02:02:26.223Z,85.40
2018-10-12T02:04:55.049Z,85.20
2018-10-12T02:07:23.817Z,85.10
2018-10-12T02:09:52.990Z,84.40
2018-10-12T02:12:23.033Z,84.20
2018-10-12T02:14:52.085Z,84.50
2018-10-12T02:17:20.819Z,84.20
2018-10-12T02:19:49.710Z,84.30
2018-10-12T02:22:18.538Z,84.90
2018-10-12T02:24:48.319Z,84.30
2018-10-12T02:27:17.192Z,85.40
2018-10-12T02:29:45.989Z,84.70
2018-10-12T02:32:14.697Z,84.90
2018-10-12T02:34:43.507Z,84.40
2018-10-12T02:37:12.374Z,84.90
2018-10-12T02:39:41.230Z,84.10
2018-10-12T02:42:17.012Z,84.10
2018-10-12T02:44:45.864Z,84.60
2018-10-12T02:47:14.882Z,84.20
2018-10-12T02:49:43.723Z,85.40
2018-10-12T02:52:12.777Z,84.30
2018-10-12T02:54:41.675Z,83.90
2018-10-12T02:57:10.927Z,83.40
2018-10-12T02:59:39.772Z,83.30
2018-10-12T03:02:08.604Z,82.30
2018-10-12T03:04:37.676Z,82.80
2018-10-12T03:07:08.040Z,82.80
2018-10-12T03:09:41.520Z,82.50
2018-10-12T03:12:12.670Z,82.40
2018-10-12T03:14:44.976Z,82.60
2018-10-12T03:17:17.520Z,82.80
2018-10-12T03:19:49.341Z,82.50
2018-10-12T03:22:23.615Z,81.80
2018-10-12T03:24:59.563Z,82.20
2018-10-12T03:27:30.117Z,81.60
2018-10-12T03:29:59.957Z,81.50
2018-10-12T03:32:31.561Z,82.30
2018-10-12T03:35:05.022Z,82.30
2018-10-12T03:37:33.993Z,83.20
2018-10-12T03:40:02.927Z,83.00
2018-10-12T03:42:32.845Z,82.50
2018-10-12T03:45:01.874Z,82.20
2018-10-12T03:47:31.548Z,82.60
2018-10-12T03:50:01.591Z,82.10
2018-10-12T03:52:31.736Z,82.70
2018-10-12T03:55:04.509Z,83.30
2018-10-12T03:57:34.618Z,83.00
2018-10-12T04:00:04.239Z,82.70
2018-10-12T04:02:33.949Z,83.90
2018-10-12T04:05:05.098Z,83.90
2018-10-12T04:07:34.907Z,84.00
2018-10-12T04:10:08.860Z,84.50
2018-10-12T04:12:38.452Z,84.50
2018-10-12T04:15:08.682Z,84.50
2018-10-12T04:17:37.595Z,84.80
2018-10-12T04:20:07.180Z,85.50
2018-10-12T04:22:37.680Z,84.50
2018-10-12T04:25:09.819Z,84.50
2018-10-12T04:27:39.335Z,84.50
2018-10-12T04:30:08.611Z,84.60
2018-10-12T04:32:37.563Z,84.20
2018-10-12T04:35:07.692Z,84.30
2018-10-12T04:37:36.625Z,83.90
2018-10-12T04:41:18.873Z,84.60
2018-10-12T04:43:49.183Z,83.60
2018-10-12T04:46:21.980Z,84.40
2018-10-12T04:48:53.196Z,85.10
2018-10-12T04:51:29.076Z,85.10
2018-10-12T04:54:04.383Z,84.70
2018-10-12T04:56:33.379Z,84.40
2018-10-12T04:59:02.432Z,85.00
2018-10-12T05:01:33.083Z,84.00
2018-10-12T05:04:02.128Z,84.40
2018-10-12T05:06:31.191Z,84.30
2018-10-12T05:09:00.963Z,84.30
2018-10-12T05:11:30.715Z,84.70
2018-10-12T05:14:01.326Z,83.10
2018-10-12T05:16:31.958Z,83.90
2018-10-12T05:19:01.708Z,84.00
2018-10-12T05:21:32.902Z,84.20
2018-10-12T05:24:02.865Z,84.00
2018-10-12T05:26:31.831Z,85.00
2018-10-12T05:29:01.580Z,84.60
2018-10-12T05:31:30.671Z,84.80
2018-10-12T05:33:59.666Z,85.50
2018-10-12T05:36:28.781Z,84.60
2018-10-12T05:38:57.862Z,85.20
2018-10-12T05:41:27.039Z,85.10
2018-10-12T05:43:56.809Z,84.20
2018-10-12T05:46:27.489Z,84.90
2018-10-12T05:49:14.369Z,86.80
2018-10-12T05:51:46.002Z,86.30
2018-10-12T05:54:15.713Z,86.30
2018-10-12T05:56:47.589Z,85.30
2018-10-12T05:59:16.697Z,86.40
2018-10-12T06:01:46.742Z,86.60
2018-10-12T06:04:15.752Z,86.70
2018-10-12T06:06:46.542Z,86.40
2018-10-12T06:09:16.123Z,86.10
2018-10-12T06:11:46.549Z,86.50
2018-10-12T06:14:18.333Z,86.10
2018-10-12T06:16:47.463Z,86.00
2018-10-12T06:19:17.902Z,85.70
2018-10-12T06:21:48.685Z,85.50
2018-10-12T06:24:19.064Z,85.80
2018-10-12T06:26:49.751Z,86.80
2018-10-12T06:29:19.737Z,86.90
2018-10-12T06:31:50.857Z,88.30
2018-10-12T06:34:21.262Z,88.40
2018-10-12T06:36:50.213Z,87.90
2018-10-12T06:39:20.413Z,87.90
2018-10-12T06:41:50.144Z,87.80
2018-10-12T06:44:18.985Z,87.20
2018-10-12T06:46:51.991Z,88.20
2018-10-12T06:51:57.948Z,88.40
2018-10-12T06:54:28.869Z,88.20
2018-10-12T06:56:58.498Z,88.20
2018-10-12T06:59:28.748Z,88.10
2018-10-12T07:01:58.756Z,88.70
2018-10-12T07:04:29.251Z,87.50
2018-10-12T07:06:59.096Z,87.10
2018-10-12T07:09:31.300Z,87.20
2018-10-12T07:12:00.306Z,86.20
2018-10-12T07:14:30.531Z,86.40
2018-10-12T07:17:00.198Z,87.20
2018-10-12T07:19:29.164Z,86.90
2018-10-12T07:21:58.827Z,86.60
2018-10-12T07:24:29.051Z,87.00
2018-10-12T07:26:58.526Z,86.40
2018-10-12T07:29:27.485Z,86.70
2018-10-12T07:31:57.641Z,87.00
2018-10-12T07:34:27.341Z,86.80
2018-10-12T07:36:58.544Z,86.80
2018-10-12T07:39:29.058Z,86.70
2018-10-12T07:41:58.583Z,87.50
2018-10-12T07:44:27.717Z,87.50
2018-10-12T07:46:57.162Z,87.70
2018-10-12T07:49:27.379Z,88.70
2018-10-12T07:51:57.506Z,89.00
2018-10-12T07:54:26.591Z,87.70
2018-10-12T07:57:00.595Z,88.70
2018-10-12T07:59:31.388Z,89.70
2018-10-12T08:02:02.053Z,88.40
2018-10-12T08:04:31.488Z,88.30
2018-10-12T08:07:01.210Z,88.20
2018-10-12T08:09:32.874Z,88.20
2018-10-12T08:12:02.496Z,87.80
2018-10-12T08:14:31.416Z,87.60
2018-10-12T08:17:01.899Z,86.50
2018-10-12T08:19:33.684Z,87.20
2018-10-12T08:22:02.672Z,87.80
2018-10-12T08:24:31.645Z,88.40
2018-10-12T08:27:01.388Z,87.70
2018-10-12T08:29:30.131Z,87.90
2018-10-12T08:32:00.095Z,86.90
2018-10-12T08:34:30.718Z,86.80
2018-10-12T08:36:59.699Z,87.00
2018-10-12T08:39:28.803Z,86.90
2018-10-12T08:41:59.454Z,85.70
2018-10-12T08:44:30.805Z,84.90
2018-10-12T08:47:00.434Z,83.60
2018-10-12T08:49:30.368Z,83.30
2018-10-12T08:52:00.204Z,80.60
2018-10-12T08:54:30.091Z,78.30
2018-10-12T08:57:02.096Z,79.20
2018-10-12T08:59:31.161Z,77.80
2018-10-12T09:02:03.409Z,77.60
2018-10-12T09:07:06.341Z,77.60
2018-10-12T09:09:37.184Z,78.10
2018-10-12T09:12:07.308Z,79.20
2018-10-12T09:14:37.052Z,78.10
2018-10-12T09:17:07.517Z,77.40
2018-10-12T09:19:37.920Z,77.50
2018-10-12T09:22:08.657Z,76.60
2018-10-12T09:24:37.795Z,75.70
2018-10-12T09:27:07.771Z,74.40
2018-10-12T09:29:37.260Z,74.40
2018-10-12T09:32:06.166Z,73.70
2018-10-12T09:34:36.309Z,73.60
2018-10-12T09:37:08.984Z,72.40
2018-10-12T09:39:38.620Z,72.60
2018-10-12T09:42:22.462Z,72.60
2018-10-12T09:44:52.014Z,71.60
2018-10-12T09:47:22.125Z,69.70
2018-10-12T09:49:51.831Z,71.20
2018-10-12T09:52:22.371Z,70.70
2018-10-12T09:54:52.437Z,70.00
2018-10-12T09:57:24.274Z,70.00
2018-10-12T09:59:54.875Z,68.10
2018-10-12T10:02:29.414Z,70.10
2018-10-12T10:05:03.957Z,70.40
2018-10-12T10:07:34.330Z,71.00
2018-10-12T10:10:04.317Z,68.60
2018-10-12T10:12:35.311Z,66.60
2018-10-12T10:15:06.609Z,67.10
2018-10-12T10:17:37.295Z,67.90
2018-10-12T10:20:07.509Z,68.20
2018-10-12T10:22:40.169Z,68.60
2018-10-12T10:25:10.248Z,68.80
2018-10-12T10:27:40.501Z,67.70
2018-10-12T10:30:11.309Z,68.30
2018-10-12T10:32:42.491Z,69.30
2018-10-12T10:35:11.394Z,68.00
2018-10-12T10:37:41.150Z,66.90
2018-10-12T10:40:11.270Z,67.00
2018-10-12T10:42:41.106Z,66.80
2018-10-12T10:45:12.096Z,68.20
2018-10-12T10:47:44.692Z,67.80
2018-10-12T10:50:15.799Z,66.20
2018-10-12T10:52:46.124Z,65.90
2018-10-12T10:55:17.330Z,65.00
2018-10-12T10:57:47.310Z,64.50
2018-10-12T11:00:17.900Z,65.70
2018-10-12T11:02:51.601Z,65.90
2018-10-12T11:05:26.501Z,63.60
2018-10-12T11:07:59.419Z,62.30
2018-10-12T11:10:29.227Z,63.60
2018-10-12T11:15:35.105Z,60.30
2018-10-12T11:18:04.744Z,61.50
2018-10-12T11:20:35.116Z,60.50
2018-10-12T11:23:07.653Z,60.80
2018-10-12T11:25:36.938Z,58.80
2018-10-12T11:28:06.814Z,62.00
2018-10-12T11:30:40.635Z,59.90
2018-10-12T11:33:10.155Z,58.30
2018-10-12T11:35:40.776Z,56.80
2018-10-12T11:38:10.400Z,58.10
2018-10-12T11:40:41.189Z,55.40
2018-10-12T11:43:33.784Z,56.10
2018-10-12T11:46:03.570Z,55.00
2018-10-12T11:48:35.830Z,53.10
2018-10-12T11:51:06.324Z,52.80
2018-10-12T11:53:37.245Z,53.30
2018-10-12T11:56:09.325Z,52.20
2018-10-12T11:58:41.903Z,55.30
2018-10-12T12:01:12.632Z,51.30
2018-10-12T12:03:44.242Z,52.60
2018-10-12T12:06:17.135Z,48.60
2018-10-12T12:08:47.754Z,48.50
2018-10-12T12:11:18.797Z,51.20
2018-10-12T12:13:50.212Z,50.20
2018-10-12T12:16:20.591Z,51.60
2018-10-12T12:18:51.217Z,50.00
2018-10-12T12:21:25.136Z,48.90
2018-10-12T12:23:55.771Z,50.80
2018-10-12T12:26:27.109Z,47.40
2018-10-12T12:28:58.464Z,48.80
2018-10-12T12:31:28.982Z,50.40
2018-10-12T12:34:01.730Z,49.40
2018-10-12T12:36:40.261Z,47.80
2018-10-12T12:39:11.739Z,47.00
2018-10-12T12:41:45.163Z,46.40
2018-10-12T12:44:16.526Z,44.40
2018-10-12T12:46:53.481Z,47.80
2018-10-12T12:49:25.918Z,44.50
2018-10-12T12:51:56.565Z,41.60
2018-10-12T12:54:27.713Z,43.20
2018-10-12T12:56:56.871Z,44.20
2018-10-12T12:59:28.415Z,43.00
2018-10-12T13:01:59.283Z,43.10
2018-10-12T13:04:31.214Z,42.70
2018-10-12T13:07:01.908Z,45.50
2018-10-12T13:09:38.751Z,43.90
2018-10-12T13:12:16.654Z,45.00
2018-10-12T13:14:49.686Z,44.30
2018-10-12T13:17:19.313Z,42.00
2018-10-12T13:20:00.316Z,44.10
2018-10-12T13:22:30.475Z,45.50
2018-10-12T13:25:01.478Z,41.90
2018-10-12T13:27:32.673Z,43.10
2018-10-12T13:30:08.368Z,42.60
2018-10-12T13:32:38.046Z,39.70
2018-10-12T13:35:10.239Z,39.80
2018-10-12T13:37:43.212Z,40.10
2018-10-12T13:40:14.284Z,41.30
2018-10-12T13:42:44.426Z,43.10
2018-10-12T13:45:15.950Z,41.30
2018-10-12T13:47:53.371Z,40.90
2018-10-12T13:50:25.317Z,42.40
2018-10-12T13:52:55.545Z,41.60
2018-10-12T13:55:32.526Z,40.50
2018-10-12T13:58:04.666Z,41.20
2018-10-12T14:00:35.900Z,40.40
2018-10-12T14:06:31.427Z,39.60
2018-10-12T14:09:02.361Z,40.50
2018-10-12T14:11:34.465Z,42.10
2018-10-12T14:14:07.484Z,41.30
2018-10-12T14:16:40.498Z,39.50
2018-10-12T14:19:10.534Z,40.80
2018-10-12T14:21:43.688Z,39.90
2018-10-12T14:24:13.230Z,41.50
2018-10-12T14:26:44.959Z,40.10
2018-10-12T14:29:20.654Z,40.60
2018-10-12T14:31:51.828Z,40.40
2018-10-12T14:34:21.386Z,41.50
2018-10-12T14:39:31.070Z,43.00
2018-10-12T14:42:00.240Z,43.30
2018-10-12T14:44:31.977Z,43.60
2018-10-12T14:47:03.209Z,44.00
2018-10-12T14:49:34.447Z,43.20
2018-10-12T14:52:06.744Z,44.00
2018-10-12T14:54:36.716Z,43.30
2018-10-12T14:57:12.764Z,45.40
2018-10-12T14:59:43.734Z,44.80
2018-10-12T15:02:18.847Z,46.00
2018-10-12T15:04:49.184Z,46.80
2018-10-12T15:07:23.444Z,47.10
2018-10-12T15:09:53.482Z,47.10
2018-10-12T15:12:23.224Z,48.70
2018-10-12T15:15:13.242Z,49.30
2018-10-12T15:17:42.408Z,49.40
2018-10-12T15:20:14.739Z,50.10
2018-10-12T15:22:44.836Z,51.00
2018-10-12T15:25:15.335Z,50.90
2018-10-12T15:27:47.009Z,51.50
2018-10-12T15:30:19.266Z,51.30
2018-10-12T15:32:48.473Z,52.90
2018-10-12T15:35:31.570Z,52.20
2018-10-12T15:38:03.989Z,51.50
2018-10-12T15:40:34.629Z,53.20
2018-10-12T15:43:09.355Z,52.50
2018-10-12T15:45:39.854Z,52.70
2018-10-12T15:48:10.929Z,53.80
2018-10-12T15:50:44.391Z,53.60
2018-10-12T15:53:21.069Z,53.00
2018-10-12T15:55:52.191Z,54.40
2018-10-12T15:58:22.504Z,54.20
2018-10-12T16:00:54.187Z,54.20
2018-10-12T16:03:25.538Z,54.20
2018-10-12T16:05:55.306Z,55.70
2018-10-12T16:08:28.414Z,55.10
2018-10-12T16:11:03.965Z,54.60
2018-10-12T16:13:36.184Z,56.20
2018-10-12T16:16:08.928Z,57.30
2018-10-12T16:18:39.866Z,57.40
2018-10-12T16:21:11.320Z,57.50
2018-10-12T16:23:41.352Z,57.00
2018-10-12T16:26:22.636Z,57.90
2018-10-12T16:28:56.438Z,58.60
2018-10-12T16:31:25.782Z,57.50
2018-10-12T16:33:57.996Z,58.70
2018-10-12T16:36:28.457Z,58.80
2018-10-12T16:39:02.581Z,58.50
2018-10-12T16:41:32.437Z,59.40
2018-10-12T16:44:02.689Z,61.00
2018-10-12T16:46:36.595Z,60.70
2018-10-12T16:49:05.920Z,61.10
2018-10-12T16:51:35.155Z,61.50
2018-10-12T16:54:08.795Z,62.10
2018-10-12T16:56:41.262Z,62.20
2018-10-12T16:59:10.680Z,61.90
2018-10-12T17:04:17.367Z,62.70
2018-10-12T17:06:51.216Z,63.70
2018-10-12T17:09:20.955Z,63.60
2018-10-12T17:11:52.077Z,63.90
2018-10-12T17:14:22.616Z,64.10
2018-10-12T17:16:56.810Z,64.60
2018-10-12T17:19:27.390Z,64.90
2018-10-12T17:21:57.826Z,65.50
2018-10-12T17:24:26.872Z,65.10
2018-10-12T17:26:56.312Z,65.00
2018-10-12T17:29:26.775Z,65.60
2018-10-12T17:31:55.772Z,67.10
2018-10-12T17:34:24.714Z,67.20
2018-10-12T17:36:55.136Z,67.30
2018-10-12T17:39:24.634Z,66.30
2018-10-12T17:41:53.631Z,67.00
2018-10-12T17:44:24.088Z,67.40
2018-10-12T17:46:53.127Z,66.80
2018-10-12T17:49:21.974Z,67.30
2018-10-12T17:51:51.165Z,67.60
2018-10-12T17:54:20.880Z,68.20
2018-10-12T17:56:49.733Z,68.10
2018-10-12T17:59:18.744Z,68.80
2018-10-12T18:01:47.754Z,68.70
2018-10-12T18:04:17.024Z,67.80
2018-10-12T18:06:45.886Z,68.70
2018-10-12T18:09:15.332Z,69.90
2018-10-12T18:11:44.822Z,70.20
2018-10-12T18:14:14.501Z,69.40
2018-10-12T18:16:44.105Z,69.60
2018-10-12T18:19:13.975Z,70.30
2018-10-12T18:21:44.551Z,70.90
2018-10-12T18:24:13.893Z,70.10
2018-10-12T18:26:43.871Z,71.10
2018-10-12T18:29:13.811Z,70.70
2018-10-12T18:31:42.991Z,71.10
2018-10-12T18:34:11.818Z,71.00
2018-10-12T18:36:40.954Z,71.70
2018-10-12T18:39:10.913Z,70.90
2018-10-12T18:41:39.732Z,71.10
2018-10-12T18:44:10.509Z,71.90
2018-10-12T18:46:39.920Z,71.60
2018-10-12T18:49:08.820Z,72.60
2018-10-12T18:51:39.032Z,72.50
2018-10-12T18:54:08.106Z,72.70
2018-10-12T18:56:37.588Z,74.10
2018-10-12T18:59:06.745Z,73.40
2018-10-12T19:01:35.823Z,73.50
2018-10-12T19:04:05.578Z,73.00
2018-10-12T19:06:34.958Z,73.00
2018-10-12T19:09:05.757Z,72.90
2018-10-12T19:11:34.751Z,73.50
2018-10-12T19:14:03.829Z,74.20
2018-10-12T19:16:33.090Z,74.20
2018-10-12T19:19:02.629Z,75.10
2018-10-12T19:21:33.001Z,74.00
2018-10-12T19:24:02.187Z,74.90
2018-10-12T19:26:34.444Z,74.00
2018-10-12T19:29:03.643Z,74.90
2018-10-12T19:31:32.825Z,74.70
2018-10-12T19:34:01.976Z,74.50
2018-10-12T19:36:31.224Z,74.50
2018-10-12T19:39:00.277Z,74.20
2018-10-12T19:44:02.481Z,74.00
2018-10-12T19:46:31.726Z,75.30
2018-10-12T19:49:00.677Z,75.40
2018-10-12T19:51:29.933Z,74.60
2018-10-12T19:53:58.978Z,74.40
2018-10-12T19:56:27.913Z,74.80
2018-10-12T19:58:57.199Z,73.70
2018-10-12T20:01:26.296Z,73.40
2018-10-12T20:03:55.335Z,73.70
2018-10-12T20:06:24.300Z,72.70
2018-10-12T20:08:53.405Z,72.90
2018-10-12T20:11:24.222Z,73.10
2018-10-12T20:13:53.022Z,72.50
2018-10-12T20:16:23.089Z,73.00
2018-10-12T20:18:52.113Z,72.00
2018-10-12T20:21:21.301Z,72.20
2018-10-12T20:23:51.158Z,71.00
2018-10-12T20:26:20.101Z,71.10
2018-10-12T20:28:49.350Z,71.90
2018-10-12T20:31:18.502Z,71.90
2018-10-12T20:33:47.712Z,71.00
2018-10-12T20:36:18.443Z,71.60
2018-10-12T20:38:48.653Z,71.90
2018-10-12T20:41:18.682Z,71.90
2018-10-12T20:43:48.028Z,72.00
2018-10-12T20:46:17.076Z,71.50
2018-10-12T20:48:46.428Z,72.20
2018-10-12T20:51:15.592Z,72.00
2018-10-12T20:53:44.934Z,72.60
2018-10-12T20:56:14.990Z,72.30
2018-10-12T20:58:44.370Z,72.20
2018-10-12T21:01:13.498Z,71.70
2018-10-12T21:03:42.819Z,72.40
2018-10-12T21:06:11.967Z,72.70
2018-10-12T21:08:41.689Z,72.00
2018-10-12T21:11:10.873Z,72.10
2018-10-12T21:13:41.414Z,71.60
2018-10-12T21:16:10.735Z,71.50
2018-10-12T21:18:41.462Z,71.00
2018-10-12T21:21:10.773Z,72.00
2018-10-12T21:23:41.909Z,71.90
2018-10-12T21:26:12.763Z,71.80
2018-10-12T21:28:41.888Z,71.00
2018-10-12T21:31:11.103Z,71.30
2018-10-12T21:33:41.375Z,70.60
2018-10-12T21:36:10.552Z,71.20
2018-10-12T21:38:39.842Z,70.30
2018-10-12T21:41:09.890Z,71.00
2018-10-12T21:43:39.382Z,70.80
2018-10-12T21:46:08.873Z,70.50
2018-10-12T21:48:38.976Z,70.70
2018-10-12T21:51:08.014Z,70.60
2018-10-12T21:53:37.275Z,70.00
2018-10-12T21:56:06.598Z,70.60
2018-10-12T21:58:35.991Z,70.50
2018-10-12T22:01:06.083Z,71.60
2018-10-12T22:03:37.085Z,70.80
2018-10-12T22:06:06.461Z,70.80
2018-10-12T22:08:41.561Z,71.00
2018-10-12T22:11:10.888Z,70.40
2018-10-12T22:13:40.862Z,71.00
2018-10-12T22:16:10.032Z,71.10
2018-10-12T22:18:39.927Z,70.80
2018-10-12T22:21:09.808Z,71.50
2018-10-12T22:23:38.928Z,71.70
2018-10-12T22:26:08.878Z,71.70
2018-10-12T22:28:40.363Z,71.30
2018-10-12T22:31:10.096Z,71.50
2018-10-12T22:33:41.657Z,71.40
2018-10-12T22:36:10.971Z,71.10
2018-10-12T22:38:40.011Z,71.80
2018-10-12T22:41:09.157Z,71.50
2018-10-12T22:43:39.565Z,72.60
2018-10-12T22:46:09.682Z,72.30
2018-10-12T22:48:38.853Z,72.90
2018-10-12T22:51:07.968Z,72.80
2018-10-12T22:53:37.558Z,73.60
2018-10-12T22:56:08.027Z,73.40
2018-10-12T22:58:37.771Z,73.20
2018-10-12T23:01:07.872Z,73.50
2018-10-12T23:03:37.117Z,73.40
2018-10-12T23:06:07.359Z,72.80
2018-10-12T23:08:36.404Z,72.80
2018-10-12T23:11:06.798Z,72.80
2018-10-12T23:13:37.443Z,73.50
2018-10-12T23:16:06.809Z,72.90
2018-10-12T23:18:36.615Z,73.70
2018-10-12T23:21:05.904Z,75.10
2018-10-12T23:23:35.631Z,74.50
2018-10-12T23:26:05.824Z,74.00
2018-10-12T23:28:35.472Z,74.40
2018-10-12T23:31:04.540Z,74.80
2018-10-12T23:33:50.556Z,74.90
2018-10-12T23:36:20.750Z,75.40
2018-10-12T23:38:49.823Z,74.80
2018-10-12T23:41:18.782Z,74.60
2018-10-12T23:43:48.464Z,74.50
2018-10-12T23:46:17.671Z,74.20
2018-10-12T23:48:47.959Z,74.40
2018-10-12T23:51:17.423Z,74.60
2018-10-12T23:53:46.925Z,74.80
2018-10-12T23:56:16.932Z,75.20
2018-10-12T23:58:46.639Z,74.30
